Pagrindinis puslapis
METAR-TAF:

METAR-TAF

Oro uostai :

Akıncı, Turkija

platuma: 40-05N, ilguma: 032-34E, Aukštis: 843 m

Dabartinis oras

Ataskaita buvo paskelbta 50 minutes, ne 05:50 UTC
Vėjas 3 kt iš Pietų/Pietvakarių, svyruoja nuo Pietryčių ir Vakarų
Temperatūra 18°C
Drėgmė 32%
Slėgis 1015 hPa
Matomumas 10 km arba daugiau
nėra debesų žemiau 1500 m ir nėra kamuolinių lietaus debesų

METAR: LTAE 140550Z 20003KT 130V260 CAVOK 18/01 Q1015 NOSIG RMK RWY21 22004KT 110V280

Laikas: 09:40 (06:40 UTC)

Prognozė

Ataskaita buvo paskelbta 2 valandos ir 0 minutes, ne 04:40 UTC
Prognozė galioja nuo 14 metu 06 UTC su 14 metu 15 UTC
Vėjas 2 kt nuo kintamojo kryptimis
Matomumas 10 km arba daugiau
nėra debesų žemiau 1500 m ir nėra kamuolinių lietaus debesų
Tapsmas
nuo 14 metu 10 UTC su 14 metu 12 UTC
Vėjas 12 kt iš Pietų/Pietvakarių

TAF: LTAE 140440Z 1406/1415 VRB02KT CAVOK BECMG 1410/1412 20012KT

Orai ataskaitas ir orų prognozės (METAR, TAF).

turimą stotys yra geltonos ir raudonos taškus žemėlapyje.

Perkelti pele per norėdami pamatyti stoties vardą.

Tada spustelėkite, norėdami matyti oro stebėjimo ir prognozės.

Norėdami pakeisti žemėlapį: spustelėkite ant žalios mygtukų su juodo kryžiaus žemyn,; žalią mygtuką su brūkšneliu, jei norite nutolinti; arba žalių rodyklių gretimoms žemėlapius.


METAR-TAF: